Time;durP1;ratioP1;P1;durP2;ratioP2;P2;SDS_P1;SDS_P2;PMS_P1;PMS_P2;Temp;Humidity;BMP_temperature;BMP_pressure;BME280_temperature;BME280_humidity;BME280_pressure;Samples;Min_cycle;Max_cycle;Signal;HPM_P1;HPM_P2
2021/12/30 00:02:50;;;;;;;93.07;25.30;;;2.80;99.90;;;0.66;100.00;99994.72;10376872;28;96967;-78
2021/12/30 00:07:54;;;;;;;72.87;21.00;;;2.80;99.90;;;0.68;100.00;100000.66;10369419;28;98969;-79
2021/12/30 00:12:57;;;;;;;86.37;18.40;;;2.80;99.90;;;0.65;100.00;99998.25;10389568;27;97858;-79
2021/12/30 00:18:02;;;;;;;78.17;17.63;;;2.80;99.90;;;0.64;100.00;100016.69;10369577;28;97367;-79
2021/12/30 00:23:08;;;;;;;137.90;21.50;;;2.80;99.90;;;0.65;100.00;100020.97;10372302;28;97063;-79
2021/12/30 00:28:16;;;;;;;103.27;18.97;;;2.70;99.90;;;0.65;100.00;100034.88;10383770;28;96803;-77
2021/12/30 00:33:20;;;;;;;108.57;20.83;;;2.80;99.90;;;0.64;100.00;100029.75;10387980;27;98360;-77
2021/12/30 00:38:26;;;;;;;94.83;19.07;;;2.80;99.90;;;0.63;100.00;100038.53;10380918;27;98521;-77
2021/12/30 00:43:30;;;;;;;91.07;17.53;;;2.70;99.90;;;0.61;100.00;100045.66;10397605;28;96701;-77
2021/12/30 00:48:33;;;;;;;106.47;18.97;;;2.70;99.90;;;0.56;100.00;100048.59;10388720;27;97913;-77
2021/12/30 00:53:36;;;;;;;94.53;17.27;;;2.70;99.90;;;0.55;100.00;100053.94;10383617;28;97304;-77
2021/12/30 00:58:39;;;;;;;146.30;18.60;;;2.60;99.90;;;0.54;100.00;100066.19;10361799;28;97344;-77
2021/12/30 01:03:42;;;;;;;105.57;17.97;;;2.60;99.90;;;0.54;100.00;100068.81;10345022;28;97112;-77
2021/12/30 01:08:45;;;;;;;103.60;15.40;;;2.60;99.90;;;0.53;100.00;100069.72;10394682;28;96650;-78
2021/12/30 01:13:57;;;;;;;96.40;14.50;;;2.60;99.90;;;0.51;100.00;100061.16;10388132;28;96605;-78
2021/12/30 01:19:14;;;;;;;71.85;13.88;;;2.60;99.90;;;0.51;100.00;100071.63;10389565;28;98619;-78
2021/12/30 01:24:18;;;;;;;87.33;13.77;;;2.60;99.90;;;0.48;100.00;100077.03;10365276;28;97172;-78
2021/12/30 01:29:20;;;;;;;135.97;15.10;;;2.60;99.90;;;0.50;100.00;100083.03;10370770;28;98402;-78
2021/12/30 01:34:26;;;;;;;114.33;13.23;;;2.60;99.90;;;0.51;100.00;100087.31;10383270;28;98551;-78
2021/12/30 01:39:32;;;;;;;92.67;12.77;;;2.60;99.90;;;0.50;100.00;100093.47;10393224;28;97043;-78
2021/12/30 01:44:35;;;;;;;108.30;13.50;;;2.60;99.90;;;0.49;100.00;100104.88;10355658;28;98358;-78
2021/12/30 01:49:39;;;;;;;74.43;11.67;;;2.60;99.90;;;0.51;100.00;100103.00;10381362;28;99340;-78
2021/12/30 01:54:41;;;;;;;101.60;12.00;;;2.60;99.90;;;0.51;100.00;100103.00;10357361;28;96837;-78
2021/12/30 01:59:44;;;;;;;106.60;13.17;;;2.60;99.90;;;0.48;100.00;100104.06;10358332;28;96919;-78
2021/12/30 02:04:48;;;;;;;76.43;12.10;;;2.60;99.90;;;0.47;100.00;100104.13;10388061;28;97050;-78
2021/12/30 02:09:53;;;;;;;111.03;13.23;;;2.60;99.90;;;0.46;100.00;100105.91;10384453;28;98272;-78
2021/12/30 02:14:56;;;;;;;112.53;13.13;;;2.60;99.90;;;0.46;100.00;100100.69;10389841;28;97534;-78
2021/12/30 02:20:02;;;;;;;123.80;12.67;;;2.60;99.90;;;0.45;100.00;100101.63;10383163;28;96607;-78
2021/12/30 02:25:07;;;;;;;89.10;11.70;;;2.60;99.90;;;0.42;100.00;100099.25;10371528;28;97629;-78
2021/12/30 02:30:10;;;;;;;74.53;10.63;;;2.50;99.90;;;0.40;100.00;100100.28;10364241;28;98583;-78
2021/12/30 02:35:13;;;;;;;77.60;11.53;;;2.50;99.90;;;0.40;100.00;100108.94;10391196;28;97088;-78
2021/12/30 02:40:28;;;;;;;111.10;13.50;;;2.50;99.90;;;0.41;100.00;100101.94;10376257;28;96657;-78
2021/12/30 02:45:32;;;;;;;108.03;11.57;;;2.60;99.90;;;0.42;100.00;100098.38;10378202;28;98133;-78
2021/12/30 02:50:36;;;;;;;93.73;12.20;;;2.50;99.90;;;0.42;100.00;100103.59;10347947;28;96631;-77
2021/12/30 02:55:40;;;;;;;79.20;11.50;;;2.50;99.90;;;0.43;100.00;100097.47;10366090;28;96718;-77
2021/12/30 03:00:48;;;;;;;48.90;9.67;;;2.50;99.90;;;0.43;100.00;100105.31;10352111;28;98193;-79
2021/12/30 03:05:57;;;;;;;52.83;10.13;;;2.50;99.90;;;0.42;100.00;100094.03;10348922;28;97300;-79
2021/12/30 03:11:01;;;;;;;69.23;11.60;;;2.50;99.90;;;0.41;100.00;100096.72;10352847;28;98332;-79
2021/12/30 03:16:12;;;;;;;106.37;11.87;;;2.50;99.90;;;0.39;100.00;100098.59;10359289;28;96914;-79
2021/12/30 03:21:20;;;;;;;67.07;12.03;;;2.60;99.90;;;0.40;100.00;100110.72;10364857;28;96875;-79
2021/12/30 03:26:23;;;;;;;85.00;11.27;;;2.50;99.90;;;0.39;100.00;100096.00;10362258;28;99460;-79
2021/12/30 03:31:27;;;;;;;103.27;12.10;;;2.60;99.90;;;0.39;100.00;100114.28;10376714;28;97564;-77
2021/12/30 03:36:32;;;;;;;61.77;9.63;;;2.50;99.90;;;0.38;100.00;100123.91;10360746;28;97110;-78
2021/12/30 03:41:35;;;;;;;90.40;11.40;;;2.50;99.90;;;0.38;100.00;100130.94;10366784;28;97062;-78
2021/12/30 03:46:38;;;;;;;127.50;12.20;;;2.50;99.90;;;0.36;100.00;100132.78;10381545;28;96741;-78
2021/12/30 03:51:41;;;;;;;99.73;12.63;;;2.50;99.90;;;0.35;100.00;100134.56;10378635;28;97137;-78
2021/12/30 03:56:45;;;;;;;98.07;11.80;;;2.50;99.90;;;0.35;100.00;100146.81;10379198;28;96725;-77
2021/12/30 04:01:47;;;;;;;124.97;12.67;;;2.50;99.90;;;0.34;100.00;100158.22;10363299;28;98421;-77
2021/12/30 04:06:50;;;;;;;96.33;11.87;;;2.50;99.90;;;0.34;100.00;100150.38;10362917;28;98378;-78
2021/12/30 04:11:53;;;;;;;83.73;11.50;;;2.50;99.90;;;0.33;100.00;100153.94;10378239;28;98711;-78
2021/12/30 04:16:58;;;;;;;109.87;11.77;;;2.40;99.90;;;0.31;100.00;100179.34;10356677;28;96662;-78
2021/12/30 04:22:01;;;;;;;104.23;11.97;;;2.40;99.90;;;0.28;100.00;100179.53;10370573;28;98107;-78
2021/12/30 04:27:04;;;;;;;118.87;11.60;;;2.40;99.90;;;0.26;100.00;100190.94;10371530;27;97227;-78
2021/12/30 04:32:07;;;;;;;108.77;11.57;;;2.40;99.90;;;0.24;100.00;100184.97;10378720;28;96729;-78
2021/12/30 04:37:10;;;;;;;108.90;12.57;;;2.40;99.90;;;0.21;100.00;100195.63;10349040;28;98884;-78
2021/12/30 04:42:13;;;;;;;71.20;11.43;;;2.30;99.90;;;0.20;100.00;100195.72;10333951;28;98723;-78
2021/12/30 04:47:17;;;;;;;99.37;12.10;;;2.30;99.90;;;0.18;100.00;100195.84;10331208;28;98072;-78
2021/12/30 04:52:20;;;;;;;75.13;10.97;;;2.30;99.90;;;0.18;100.00;100211.53;10321742;28;96907;-78
2021/12/30 04:57:23;;;;;;;167.73;14.13;;;2.30;99.90;;;0.18;100.00;100210.66;10351785;28;98435;-78
2021/12/30 05:02:34;;;;;;;98.07;11.33;;;2.30;99.90;;;0.16;100.00;100233.44;10344013;28;96719;-78
2021/12/30 05:07:37;;;;;;;;;;;2.30;99.90;;;0.19;100.00;100248.94;10326686;28;97781;-77
2021/12/30 05:12:40;;;;;;;115.93;11.17;;;2.30;99.90;;;0.18;100.00;100255.94;10347342;28;97706;-79
2021/12/30 05:17:43;;;;;;;106.13;10.87;;;2.30;99.90;;;0.18;100.00;100263.78;10324029;28;98431;-78
2021/12/30 05:22:46;;;;;;;115.67;11.47;;;2.30;99.90;;;0.19;100.00;100285.53;10352197;28;98320;-78
2021/12/30 05:27:50;;;;;;;92.00;10.73;;;2.30;99.90;;;0.18;100.00;100305.59;10344587;28;96942;-78
2021/12/30 05:32:57;;;;;;;96.70;11.57;;;2.30;99.90;;;0.18;100.00;100304.72;10332281;28;97261;-78
2021/12/30 05:38:01;;;;;;;158.33;14.13;;;2.30;99.90;;;0.17;100.00;100303.91;10357686;28;97842;-78
2021/12/30 05:43:05;;;;;;;90.73;11.13;;;2.30;99.90;;;0.17;100.00;100319.56;10383015;28;98660;-77
2021/12/30 05:48:08;;;;;;;76.53;11.13;;;2.30;99.90;;;0.18;100.00;100310.81;10380549;28;97618;-77
2021/12/30 05:53:10;;;;;;;80.40;10.83;;;2.30;99.90;;;0.19;100.00;100302.03;10383108;28;98426;-78
2021/12/30 05:58:13;;;;;;;92.70;12.77;;;2.30;99.90;;;0.18;100.00;100321.28;10387706;28;98451;-77
2021/12/30 06:03:21;;;;;;;105.50;11.50;;;2.30;99.90;;;0.17;100.00;100331.81;10386282;28;97872;-78
2021/12/30 06:08:24;;;;;;;89.87;10.60;;;2.30;99.90;;;0.14;100.00;100337.25;10389631;28;97280;-78
2021/12/30 06:13:27;;;;;;;98.43;11.43;;;2.30;99.90;;;0.13;100.00;100356.47;10396935;28;96725;-77
2021/12/30 06:18:30;;;;;;;82.13;11.07;;;2.20;99.90;;;0.12;100.00;100357.38;10381181;28;98257;-77
2021/12/30 06:23:33;;;;;;;105.17;10.90;;;2.20;99.90;;;0.12;100.00;100368.72;10383847;28;97320;-78
2021/12/30 06:28:36;;;;;;;78.03;10.00;;;2.30;99.90;;;0.11;100.00;100372.22;10381091;28;96863;-78
2021/12/30 06:33:39;;;;;;;126.53;11.93;;;2.20;99.90;;;0.12;100.00;100383.53;10379610;27;96912;-78
2021/12/30 06:38:42;;;;;;;117.60;11.10;;;2.20;99.90;;;0.12;100.00;100384.38;10385947;28;96823;-77
2021/12/30 06:43:45;;;;;;;100.67;13.17;;;2.30;99.90;;;0.16;100.00;100379.78;10380748;28;98614;-78
2021/12/30 06:48:48;;;;;;;116.37;11.37;;;2.30;99.90;;;0.17;100.00;100416.28;10384616;28;97510;-79
2021/12/30 06:53:54;;;;;;;94.20;12.00;;;2.30;99.90;;;0.17;100.00;100424.13;10372040;28;97228;-77
2021/12/30 06:58:58;;;;;;;111.70;11.10;;;2.30;99.90;;;0.19;100.00;100448.41;10365097;28;97436;-77
2021/12/30 07:04:01;;;;;;;143.97;11.37;;;2.30;99.90;;;0.20;100.00;100455.28;10377867;28;97934;-77
2021/12/30 07:09:04;;;;;;;107.17;11.87;;;2.30;99.90;;;0.22;100.00;100442.97;10391918;27;96573;-77
2021/12/30 07:14:07;;;;;;;114.63;11.83;;;2.30;99.90;;;0.25;100.00;100441.94;10383502;28;98915;-77
2021/12/30 07:19:13;;;;;;;113.67;11.47;;;2.40;99.90;;;0.28;100.00;100430.44;10389662;28;96941;-77
2021/12/30 07:24:15;;;;;;;96.50;10.20;;;2.40;99.90;;;0.30;100.00;100442.50;10383329;28;97061;-77
2021/12/30 07:29:19;;;;;;;124.50;11.80;;;2.40;99.90;;;0.31;100.00;100459.03;10390662;28;96930;-77
2021/12/30 07:34:23;;;;;;;108.93;12.07;;;2.40;99.90;;;0.33;100.00;100478.06;10373276;28;97108;-77
2021/12/30 07:39:25;;;;;;;99.23;11.83;;;2.40;99.90;;;0.36;100.00;100480.47;10377404;28;98032;-77
2021/12/30 07:44:28;;;;;;;104.53;14.40;;;2.50;99.90;;;0.38;100.00;100483.84;10364592;28;97125;-77
2021/12/30 07:49:50;;;;;;;96.75;12.88;;;2.50;99.90;;;0.41;100.00;100483.63;10378453;28;97144;-76
2021/12/30 07:54:53;;;;;;;92.50;12.43;;;2.50;99.90;;;0.41;100.00;100494.94;10389327;28;96722;-77
2021/12/30 07:59:57;;;;;;;113.97;15.13;;;2.50;99.90;;;0.42;100.00;100496.63;10386238;28;96766;-77
2021/12/30 08:05:00;;;;;;;146.37;13.87;;;2.50;99.90;;;0.46;100.00;100486.81;10389516;27;98926;-76
2021/12/30 08:10:10;;;;;;;150.03;14.00;;;2.50;99.90;;;0.47;100.00;100484.09;10392315;28;97274;-76
2021/12/30 08:15:15;;;;;;;163.87;16.43;;;2.50;99.90;;;0.51;100.00;100495.22;10392499;28;96842;-77
2021/12/30 08:20:22;;;;;;;192.80;16.73;;;2.60;99.90;;;0.60;100.00;100493.78;10396530;28;97318;-76
2021/12/30 08:25:24;;;;;;;186.17;25.03;;;2.60;99.90;;;0.68;100.00;100497.59;10379595;28;97298;-76
2021/12/30 08:30:28;;;;;;;137.27;14.63;;;2.70;99.90;;;0.76;100.00;100503.16;10384969;28;98664;-76
2021/12/30 08:35:32;;;;;;;91.50;15.27;;;2.80;99.90;;;0.84;100.00;100512.31;10387111;28;98522;-76
2021/12/30 08:40:35;;;;;;;152.07;16.87;;;2.90;99.90;;;0.89;100.00;100513.69;10391366;28;96967;-75
2021/12/30 08:45:39;;;;;;;82.97;14.20;;;2.90;99.90;;;0.93;100.00;100509.09;10375428;28;96792;-76
2021/12/30 08:50:42;;;;;;;164.40;30.07;;;3.00;99.90;;;1.00;100.00;100528.69;10384292;28;97340;-76
2021/12/30 08:55:45;;;;;;;94.60;15.63;;;3.00;99.90;;;1.05;100.00;100524.84;10392977;28;98303;-80
2021/12/30 09:00:49;;;;;;;112.03;16.33;;;3.10;99.90;;;1.12;100.00;100522.69;10383445;28;96726;-76
2021/12/30 09:05:52;;;;;;;153.07;19.03;;;3.10;99.90;;;1.15;100.00;100527.72;10377815;28;98540;-77
2021/12/30 09:10:55;;;;;;;125.77;17.37;;;3.20;99.90;;;1.16;100.00;100510.25;10384484;28;96804;-77
2021/12/30 09:15:58;;;;;;;178.10;19.20;;;3.10;99.90;;;1.17;100.00;100510.13;10379656;28;97769;-77
2021/12/30 09:21:01;;;;;;;139.03;18.17;;;3.20;99.90;;;1.22;100.00;100520.31;10381306;28;97061;-76
2021/12/30 09:26:04;;;;;;;152.57;19.80;;;3.20;99.90;;;1.25;100.00;100520.94;10395709;28;97586;-76
2021/12/30 09:31:07;;;;;;;102.93;18.00;;;3.30;99.90;;;1.27;100.00;100520.84;10399594;28;96737;-77
2021/12/30 09:36:10;;;;;;;173.47;21.70;;;3.30;99.90;;;1.28;100.00;100533.84;10407303;28;97141;-77
2021/12/30 09:41:13;;;;;;;267.87;34.10;;;3.30;99.90;;;1.31;100.00;100544.09;10407012;28;97041;-77
2021/12/30 09:46:18;;;;;;;125.33;24.63;;;3.30;99.90;;;1.32;100.00;100537.94;10374027;28;96658;-77
2021/12/30 09:51:21;;;;;;;150.67;24.00;;;3.40;99.90;;;1.37;100.00;100528.94;10379703;28;96647;-77
2021/12/30 09:56:24;;;;;;;151.90;22.97;;;3.40;99.90;;;1.43;100.00;100526.75;10382528;28;96628;-77
2021/12/30 10:01:27;;;;;;;118.00;20.70;;;3.40;99.90;;;1.48;100.00;100529.06;10397669;28;96566;-77
2021/12/30 10:06:32;;;;;;;164.67;21.67;;;3.50;99.90;;;1.55;100.00;100522.47;10392485;27;96797;-77
2021/12/30 10:11:56;;;;;;;135.03;19.77;;;3.50;99.90;;;1.65;100.00;100522.72;10411005;28;96950;-77
2021/12/30 10:17:26;;;;;;;159.03;23.40;;;3.60;99.90;;;1.72;100.00;100511.69;10379798;28;97065;-77
2021/12/30 10:22:29;;;;;;;127.17;26.10;;;3.70;99.90;;;1.81;100.00;100518.94;10389066;28;96834;-77
2021/12/30 10:27:34;;;;;;;122.23;23.00;;;3.80;99.90;;;1.80;100.00;100525.13;10381767;28;97065;-77
2021/12/30 10:32:36;;;;;;;123.30;23.30;;;3.80;99.90;;;1.83;100.00;100532.78;10408778;28;96805;-77
2021/12/30 10:37:45;;;;;;;164.70;24.67;;;3.80;99.90;;;1.84;100.00;100525.75;10412811;27;99184;-77
2021/12/30 10:42:48;;;;;;;112.23;22.23;;;3.80;99.90;;;1.84;100.00;100531.84;10411028;28;97824;-77
2021/12/30 10:47:54;;;;;;;149.13;24.97;;;3.80;99.90;;;1.85;100.00;100523.03;10369815;28;96943;-77
2021/12/30 10:52:57;;;;;;;128.60;23.90;;;3.80;99.90;;;1.88;100.00;100522.81;10370559;28;96519;-78
2021/12/30 10:58:00;;;;;;;102.23;20.20;;;3.90;99.90;;;1.89;100.00;100518.44;10401671;28;96573;-77
2021/12/30 11:03:32;;;;;;;102.70;23.03;;;3.90;99.90;;;1.98;100.00;100514.31;10366616;28;97137;-77
2021/12/30 11:08:35;;;;;;;94.55;24.30;;;3.90;99.90;;;2.07;100.00;100505.84;10365590;28;98201;-78
2021/12/30 11:13:56;;;;;;;93.80;20.23;;;4.00;99.90;;;2.12;100.00;100498.50;10406886;28;97615;-78
2021/12/30 11:19:00;;;;;;;113.47;25.77;;;4.10;99.90;;;2.19;100.00;100491.88;10367386;28;97246;-77
2021/12/30 11:24:04;;;;;;;70.13;20.30;;;4.20;99.90;;;2.29;100.00;100492.09;10378817;28;97263;-78
2021/12/30 11:29:07;;;;;;;69.63;19.03;;;4.30;99.90;;;2.44;100.00;100496.22;10388994;28;97116;-78
2021/12/30 11:34:10;;;;;;;61.97;19.53;;;4.40;99.90;;;2.55;100.00;100488.44;10386205;27;98627;-78
2021/12/30 11:39:17;;;;;;;66.70;17.60;;;4.50;99.90;;;2.64;100.00;100477.31;10372632;28;97574;-77
2021/12/30 11:44:44;;;;;;;98.10;32.40;;;4.60;99.90;;;2.72;100.00;100468.88;10389331;28;98280;-78
2021/12/30 11:49:52;;;;;;;76.07;26.73;;;4.70;99.90;;;2.76;100.00;100464.22;10390570;28;96714;-77
2021/12/30 11:54:55;;;;;;;82.87;29.40;;;4.70;99.90;;;2.79;100.00;100461.38;10393547;28;96880;-77
2021/12/30 12:00:20;;;;;;;61.73;26.03;;;4.80;99.90;;;2.79;100.00;100461.38;10393147;28;97407;-78
2021/12/30 12:05:42;;;;;;;132.63;47.50;;;4.80;99.90;;;2.72;100.00;100470.66;10377935;28;97044;-77
2021/12/30 12:11:14;;;;;;;142.83;48.80;;;4.80;99.90;;;2.71;100.00;100482.94;10382133;28;97159;-77
2021/12/30 12:16:48;;;;;;;84.10;24.07;;;4.70;99.90;;;2.71;100.00;100496.06;10377772;28;97805;-77
2021/12/30 12:21:53;;;;;;;78.67;24.40;;;4.70;99.90;;;2.72;100.00;100482.00;10392415;28;97914;-77
2021/12/30 12:27:01;;;;;;;76.50;22.30;;;4.70;99.90;;;2.73;100.00;100491.53;10394218;28;96999;-77
2021/12/30 12:32:29;;;;;;;94.13;28.77;;;4.70;99.90;;;2.74;100.00;100493.19;10382772;28;96678;-77
2021/12/30 12:37:32;;;;;;;83.13;25.83;;;4.80;99.90;;;2.73;100.00;100506.44;10373406;28;97111;-77
2021/12/30 12:42:50;;;;;;;98.30;33.77;;;4.70;99.90;;;2.69;100.00;100495.31;10387152;28;97778;-77
2021/12/30 12:48:18;;;;;;;86.80;28.23;;;4.70;99.90;;;2.68;100.00;100504.16;10388525;28;98422;-77
2021/12/30 12:53:37;;;;;;;95.63;29.93;;;4.70;99.90;;;2.69;100.00;100509.28;10384861;28;97194;-77
2021/12/30 12:58:44;;;;;;;91.70;28.40;;;4.70;99.90;;;2.67;100.00;100515.59;10394371;28;97059;-77
2021/12/30 13:03:48;;;;;;;88.63;22.43;;;4.70;99.90;;;2.67;100.00;100505.09;10385644;28;96819;-77
2021/12/30 13:09:03;;;;;;;84.70;24.33;;;4.70;99.90;;;2.67;100.00;100505.94;10379317;28;98381;-77
2021/12/30 13:14:32;;;;;;;85.33;24.93;;;4.70;99.90;;;2.71;100.00;100514.44;10388514;28;98633;-78
2021/12/30 13:19:44;;;;;;;71.80;21.53;;;4.70;99.90;;;2.73;100.00;100525.66;10392302;28;96932;-78
2021/12/30 13:25:00;;;;;;;63.67;21.97;;;4.70;99.90;;;2.74;100.00;100511.56;10398383;28;96850;-79
2021/12/30 13:30:14;;;;;;;76.40;23.13;;;4.80;99.90;;;2.73;100.00;100523.03;10400281;28;96740;-79
2021/12/30 13:35:22;;;;;;;93.33;31.03;;;4.80;99.90;;;2.76;100.00;100529.81;10376592;28;96646;-78
2021/12/30 13:40:38;;;;;;;165.43;55.13;;;4.80;99.90;;;2.76;100.00;100537.69;10381279;28;98027;-78
2021/12/30 13:45:48;;;;;;;113.43;54.93;;;4.80;99.90;;;2.77;100.00;100542.03;10388729;28;96626;-78
2021/12/30 13:50:54;;;;;;;87.03;30.93;;;4.80;99.90;;;2.75;100.00;100526.38;10386213;28;96568;-78
2021/12/30 13:56:05;;;;;;;83.93;34.47;;;4.80;99.90;;;2.73;100.00;100540.56;10388333;28;96724;-78
2021/12/30 14:01:23;;;;;;;81.57;28.97;;;4.70;99.90;;;2.72;100.00;100544.97;10403345;27;98549;-78
2021/12/30 14:06:27;;;;;;;125.70;47.87;;;4.70;99.90;;;2.71;100.00;100561.66;10381538;28;98368;-78
2021/12/30 14:11:33;;;;;;;84.83;32.10;;;4.70;99.90;;;2.72;100.00;100539.72;10400039;28;96800;-78
2021/12/30 14:16:43;;;;;;;162.23;84.70;;;4.70;99.90;;;2.71;100.00;100559.03;10381014;28;99541;-78
2021/12/30 14:21:47;;;;;;;82.00;28.57;;;4.70;99.90;;;2.70;100.00;100546.88;10385738;28;98446;-78
2021/12/30 14:27:00;;;;;;;67.93;21.80;;;4.70;99.90;;;2.73;100.00;100566.81;10368734;28;98038;-78
2021/12/30 14:32:10;;;;;;;75.93;24.00;;;4.70;99.90;;;2.72;100.00;100552.84;10378611;27;97710;-78
2021/12/30 14:37:22;;;;;;;69.87;23.50;;;4.70;99.90;;;2.70;100.00;100565.25;10373668;28;97718;-78
2021/12/30 14:42:30;;;;;;;96.40;32.00;;;4.70;99.90;;;2.70;100.00;100546.88;10373281;28;96545;-80
2021/12/30 14:47:38;;;;;;;71.73;25.10;;;4.70;99.90;;;2.72;100.00;100541.50;10377333;28;97157;-79
2021/12/30 14:52:59;;;;;;;68.77;22.57;;;4.70;99.90;;;2.72;100.00;100538.88;10384186;28;98126;-78
2021/12/30 14:58:06;;;;;;;76.93;24.07;;;4.70;99.90;;;2.72;100.00;100552.00;10383431;28;96712;-78
2021/12/30 15:03:09;;;;;;;52.37;20.50;;;4.70;99.90;;;2.73;100.00;100558.94;10383056;28;98598;-78
2021/12/30 15:08:13;;;;;;;94.07;32.70;;;4.70;99.90;;;2.72;100.00;100552.84;10393707;28;98390;-78
2021/12/30 15:13:16;;;;;;;56.97;22.00;;;4.80;99.90;;;2.74;100.00;100574.56;10385575;28;98681;-78
2021/12/30 15:18:19;;;;;;;78.60;29.27;;;4.80;99.90;;;2.75;100.00;100581.47;10392990;28;98295;-78
2021/12/30 15:23:22;;;;;;;78.37;30.77;;;4.70;99.90;;;2.78;100.00;100591.78;10392176;28;97155;-78
2021/12/30 15:28:25;;;;;;;91.77;32.67;;;4.80;99.90;;;2.79;100.00;100587.38;10385392;28;98346;-78
2021/12/30 15:33:28;;;;;;;92.37;32.17;;;4.80;99.90;;;2.80;100.00;100602.16;10382617;28;99040;-78
2021/12/30 15:38:30;;;;;;;72.13;29.77;;;4.90;99.90;;;2.80;100.00;100579.38;10385871;28;98131;-78
2021/12/30 15:43:34;;;;;;;97.37;35.17;;;4.80;99.90;;;2.82;100.00;100566.13;10371336;28;99140;-78
2021/12/30 15:48:39;;;;;;;71.07;26.23;;;4.90;99.90;;;2.80;100.00;100574.13;10404806;28;97514;-78
2021/12/30 15:53:42;;;;;;;87.03;34.50;;;4.90;99.90;;;2.80;100.00;100589.88;10392569;28;96638;-78
2021/12/30 15:58:45;;;;;;;76.97;28.77;;;4.90;99.90;;;2.79;100.00;100576.88;10390365;28;96753;-77
2021/12/30 16:03:48;;;;;;;69.30;23.43;;;4.90;99.90;;;2.79;100.00;100577.69;10394574;28;97230;-78
2021/12/30 16:08:51;;;;;;;62.37;22.37;;;4.80;99.90;;;2.77;100.00;100582.22;10387810;28;98659;-78
2021/12/30 16:13:55;;;;;;;67.67;24.60;;;4.80;99.90;;;2.76;100.00;100593.69;10403056;27;97396;-78
2021/12/30 16:18:59;;;;;;;86.77;29.67;;;4.80;99.90;;;2.78;100.00;100606.69;10375799;28;97948;-78
2021/12/30 16:24:02;;;;;;;106.37;36.73;;;4.80;99.90;;;2.79;100.00;100613.59;10374656;28;98848;-78
2021/12/30 16:29:05;;;;;;;122.67;43.60;;;4.80;99.90;;;2.79;100.00;100614.44;10377695;28;96966;-78
2021/12/30 16:34:12;;;;;;;104.70;35.93;;;4.80;99.90;;;2.82;100.00;100621.25;10388533;27;98770;-78
2021/12/30 16:39:19;;;;;;;108.23;40.27;;;4.90;99.90;;;2.83;100.00;100617.69;10378697;28;98313;-76
2021/12/30 16:44:23;;;;;;;118.30;42.40;;;4.90;99.90;;;2.85;100.00;100629.75;10388759;27;98355;-82
2021/12/30 16:49:28;;;;;;;114.10;39.73;;;4.90;99.90;;;2.86;100.00;100626.19;10392263;28;97451;-76
2021/12/30 16:54:31;;;;;;;97.07;35.83;;;4.90;99.90;;;2.87;100.00;100611.28;10380110;28;99155;-76
2021/12/30 16:59:35;;;;;;;115.37;35.43;;;5.00;99.90;;;2.87;100.00;100621.78;10365281;27;98105;-77
2021/12/30 17:04:38;;;;;;;94.03;30.53;;;5.00;99.90;;;2.87;100.00;100625.22;10391346;28;98141;-78
2021/12/30 17:09:41;;;;;;;86.67;30.80;;;5.00;99.90;;;2.87;100.00;100627.84;10387524;28;96709;-78
2021/12/30 17:14:44;;;;;;;87.73;29.67;;;5.00;99.90;;;2.86;100.00;100623.56;10376939;28;97004;-78
2021/12/30 17:19:47;;;;;;;98.63;30.57;;;4.90;99.90;;;2.86;100.00;100627.97;10372922;28;98751;-78
2021/12/30 17:24:50;;;;;;;96.57;30.03;;;5.00;99.90;;;2.84;100.00;100635.97;10380136;28;98704;-78
2021/12/30 17:29:53;;;;;;;87.50;24.23;;;5.00;99.90;;;2.81;100.00;100620.41;10361560;28;97111;-78
2021/12/30 17:34:56;;;;;;;71.77;22.40;;;4.90;99.90;;;2.80;100.00;100623.16;10379694;28;97126;-78
2021/12/30 17:39:59;;;;;;;91.50;27.17;;;4.90;99.90;;;2.79;100.00;100638.06;10364253;28;98127;-78
2021/12/30 17:45:04;;;;;;;96.17;30.03;;;4.90;99.90;;;2.76;100.00;100632.19;10385245;28;97073;-78
2021/12/30 17:50:08;;;;;;;98.77;31.90;;;4.80;99.90;;;2.74;100.00;100623.59;10386864;28;97025;-78
2021/12/30 17:55:11;;;;;;;93.53;30.93;;;4.80;99.90;;;2.72;100.00;100622.88;10365586;28;97239;-78
2021/12/30 18:00:15;;;;;;;92.30;30.13;;;4.80;99.90;;;2.72;100.00;100631.56;10382311;28;98472;-78
2021/12/30 18:05:18;;;;;;;100.03;33.53;;;4.70;99.90;;;2.72;100.00;100617.63;10382618;28;97960;-78
2021/12/30 18:10:22;;;;;;;91.53;33.10;;;4.80;99.90;;;2.75;100.00;100628.72;10397422;28;96743;-78
2021/12/30 18:15:26;;;;;;;101.47;32.63;;;4.80;99.90;;;2.75;100.00;100630.50;10391746;28;96885;-78
2021/12/30 18:20:29;;;;;;;107.80;37.53;;;4.80;99.90;;;2.78;100.00;100631.16;10396864;28;98526;-78
2021/12/30 18:25:33;;;;;;;81.83;30.60;;;4.90;99.90;;;2.81;100.00;100646.66;10378996;28;97345;-78
2021/12/30 18:30:37;;;;;;;104.03;34.00;;;4.90;99.90;;;2.85;100.00;100640.25;10365244;28;98767;-78
2021/12/30 18:35:45;;;;;;;86.47;32.03;;;4.90;99.90;;;2.87;100.00;100648.84;10387419;28;98248;-79
2021/12/30 18:40:48;;;;;;;85.90;32.17;;;4.90;99.90;;;2.88;100.00;100653.19;10389122;28;97194;-78
2021/12/30 18:45:51;;;;;;;105.47;34.47;;;4.90;99.90;;;2.90;100.00;100656.53;10378816;27;97157;-78
2021/12/30 18:50:54;;;;;;;104.73;34.40;;;4.90;99.90;;;2.93;100.00;100664.19;10387528;28;98570;-78
2021/12/30 18:56:01;;;;;;;112.33;34.40;;;4.90;99.90;;;2.95;100.00;100651.81;10386493;28;96877;-78
2021/12/30 19:01:06;;;;;;;96.30;31.97;;;5.00;99.90;;;3.00;100.00;100656.75;10382551;28;97237;-78
2021/12/30 19:06:11;;;;;;;91.30;28.67;;;5.00;99.90;;;3.00;100.00;100658.50;10389822;28;97954;-78
2021/12/30 19:11:15;;;;;;;104.77;30.37;;;5.10;99.90;;;3.01;100.00;100649.69;10388417;28;98584;-78
2021/12/30 19:16:21;;;;;;;115.47;32.93;;;5.10;99.90;;;3.02;100.00;100662.72;10380133;28;98394;-78
2021/12/30 19:21:24;;;;;;;106.80;27.00;;;5.10;99.90;;;3.04;100.00;100652.09;10386619;28;98386;-80
2021/12/30 19:26:29;;;;;;;135.37;35.97;;;5.10;99.90;;;3.04;100.00;100654.72;10379781;28;98546;-80
2021/12/30 19:31:33;;;;;;;101.23;25.63;;;5.10;99.90;;;3.05;100.00;100641.47;10386085;28;97784;-80
2021/12/30 19:36:36;;;;;;;99.00;28.50;;;5.10;99.90;;;3.04;100.00;100645.03;10387149;28;96785;-80
2021/12/30 19:41:40;;;;;;;116.03;32.27;;;5.10;99.90;;;3.03;100.00;100646.00;10378114;28;96709;-80
2021/12/30 19:46:42;;;;;;;110.47;31.50;;;5.10;99.90;;;3.02;100.00;100657.47;10381071;28;97220;-80
2021/12/30 19:51:46;;;;;;;105.33;28.83;;;5.10;99.90;;;3.03;100.00;100653.03;10395578;28;98622;-80
2021/12/30 19:56:49;;;;;;;109.97;29.90;;;5.10;99.90;;;3.02;100.00;100648.75;10378363;28;98579;-81
2021/12/30 20:01:52;;;;;;;101.90;28.90;;;5.10;99.90;;;3.03;100.00;100658.28;10392888;28;97101;-80
2021/12/30 20:06:55;;;;;;;114.63;30.57;;;5.10;99.90;;;3.02;100.00;100646.13;10397841;28;97930;-80
2021/12/30 20:11:59;;;;;;;132.40;37.73;;;5.10;99.90;;;3.04;100.00;100662.59;10387599;28;98287;-81
2021/12/30 20:17:03;;;;;;;105.50;30.13;;;5.10;99.90;;;3.07;100.00;100650.09;10385174;28;97220;-81
2021/12/30 20:22:06;;;;;;;127.07;34.90;;;5.10;99.90;;;3.09;100.00;100652.59;10382771;28;97509;-81
2021/12/30 20:27:09;;;;;;;135.50;38.57;;;5.20;99.90;;;3.09;100.00;100649.97;10383943;28;99004;-80
2021/12/30 20:32:12;;;;;;;122.10;34.63;;;5.20;99.90;;;3.09;100.00;100649.97;10395514;28;96645;-80
2021/12/30 20:37:16;;;;;;;154.13;39.97;;;5.10;99.90;;;3.08;100.00;100641.28;10394687;28;98665;-80
2021/12/30 20:42:19;;;;;;;99.93;31.80;;;5.10;99.90;;;3.08;100.00;100646.53;10389314;28;97904;-80